createdAt,value
2022-11-25T00:02:28.073Z,0
2022-11-25T00:07:47.760Z,0
2022-11-25T00:13:05.580Z,0
2022-11-25T00:18:23.220Z,0
2022-11-25T00:23:40.689Z,0
2022-11-25T00:29:00.186Z,0
2022-11-25T00:34:17.428Z,0
2022-11-25T00:39:37.810Z,0
2022-11-25T00:44:55.254Z,0
2022-11-25T00:50:12.444Z,0
2022-11-25T00:55:29.753Z,0
2022-11-25T01:06:07.205Z,0
2022-11-25T01:16:41.768Z,0
2022-11-25T01:21:59.162Z,0
2022-11-25T01:27:16.428Z,0
2022-11-25T01:32:33.863Z,0
2022-11-25T01:37:51.686Z,0
2022-11-25T01:43:11.796Z,0
2022-11-25T01:48:28.940Z,0
2022-11-25T01:53:46.659Z,0
2022-11-25T01:59:07.072Z,0
2022-11-25T02:04:31.497Z,0
2022-11-25T02:09:49.042Z,0
2022-11-25T02:15:09.360Z,0
2022-11-25T02:20:26.651Z,0
2022-11-25T02:25:43.841Z,0
2022-11-25T02:36:22.695Z,0
2022-11-25T02:41:39.940Z,0
2022-11-25T02:46:57.232Z,0
2022-11-25T02:52:14.930Z,0
2022-11-25T02:57:32.260Z,0
2022-11-25T03:02:49.847Z,0
2022-11-25T03:08:24.195Z,0
2022-11-25T03:13:41.776Z,0
2022-11-25T03:18:59.468Z,0
2022-11-25T03:24:28.885Z,0
2022-11-25T03:29:46.390Z,0
2022-11-25T03:35:03.720Z,0
2022-11-25T03:40:28.179Z,0
2022-11-25T03:45:45.598Z,0
2022-11-25T03:51:02.857Z,0
2022-11-25T03:56:20.167Z,0
2022-11-25T04:01:42.854Z,0
2022-11-25T04:07:01.489Z,0
2022-11-25T04:12:18.873Z,0
2022-11-25T04:17:36.191Z,0
2022-11-25T04:22:53.355Z,0
2022-11-25T04:28:11.324Z,0
2022-11-25T04:33:28.743Z,0
2022-11-25T04:38:46.283Z,0
2022-11-25T04:44:03.511Z,0
2022-11-25T04:55:10.727Z,0
2022-11-25T05:05:48.362Z,0
2022-11-25T05:11:05.668Z,0
2022-11-25T05:16:23.124Z,0
2022-11-25T05:21:40.453Z,0
2022-11-25T05:32:15.040Z,0
2022-11-25T05:37:32.673Z,0
2022-11-25T05:42:52.660Z,0
2022-11-25T05:48:16.435Z,0
2022-11-25T05:53:33.948Z,0
2022-11-25T05:58:51.379Z,0
2022-11-25T06:04:08.474Z,0
2022-11-25T06:09:25.621Z,0
2022-11-25T06:14:42.720Z,0
2022-11-25T06:20:02.975Z,0
2022-11-25T06:25:20.368Z,0
2022-11-25T06:30:37.781Z,0
2022-11-25T06:35:55.074Z,0
2022-11-25T06:41:17.509Z,0.5
2022-11-25T06:46:34.618Z,25
2022-11-25T06:51:52.052Z,55.4
2022-11-25T06:57:09.257Z,100.4
2022-11-25T07:02:31.430Z,167.5
2022-11-25T07:07:50.579Z,254.6
2022-11-25T07:13:07.575Z,364.6
2022-11-25T07:18:24.906Z,511.7
2022-11-25T07:23:44.963Z,708.3
2022-11-25T07:29:02.221Z,929.6
2022-11-25T07:39:39.447Z,1295.8
2022-11-25T07:44:56.625Z,1476.2
2022-11-25T07:50:13.621Z,1671.3
2022-11-25T07:55:30.869Z,1940
2022-11-25T08:00:48.054Z,2157.1
2022-11-25T08:06:17.738Z,2328.8
2022-11-25T08:16:52.333Z,3108.3
2022-11-25T08:22:12.590Z,2818.7
2022-11-25T08:27:29.390Z,3362.5
2022-11-25T08:32:53.478Z,3540.4
2022-11-25T08:38:10.321Z,3547.9
2022-11-25T08:43:29.479Z,3910.4
2022-11-25T08:48:46.983Z,4014.6
2022-11-25T08:54:12.471Z,4531.2
2022-11-25T08:59:29.474Z,5025.4
2022-11-25T09:04:46.897Z,4715.8
2022-11-25T09:10:03.446Z,3602.5
2022-11-25T09:15:38.284Z,5302.1
2022-11-25T09:21:02.790Z,5884.2
2022-11-25T09:26:27.319Z,5513.7
2022-11-25T09:31:54.879Z,5716.7
2022-11-25T09:37:22.305Z,5734.6
2022-11-25T09:42:47.470Z,5208.8
2022-11-25T09:53:40.279Z,5557.5
2022-11-25T09:59:05.387Z,7172.1
2022-11-25T10:04:29.501Z,4554.6
2022-11-25T10:09:44.922Z,5565.4
2022-11-25T10:15:03.256Z,7578.3
2022-11-25T10:25:38.816Z,5310.8
2022-11-25T10:31:05.781Z,8259.2
2022-11-25T10:36:31.231Z,8257.1
2022-11-25T10:41:57.002Z,7692.1
2022-11-25T10:47:21.736Z,7257.5
2022-11-25T10:52:47.679Z,7853.3
2022-11-25T10:58:15.233Z,9757.1
2022-11-25T11:03:39.985Z,8481.7
2022-11-25T11:08:58.136Z,8145.4
2022-11-25T11:19:36.753Z,7322.9
2022-11-25T11:25:01.339Z,7397.1
2022-11-25T11:30:19.707Z,7353.8
2022-11-25T11:35:41.895Z,10113.7
2022-11-25T11:40:59.868Z,9313.3
2022-11-25T11:46:15.917Z,5091.7
2022-11-25T11:51:32.751Z,4708.3
2022-11-25T11:56:55.195Z,5717.9
2022-11-25T12:02:13.335Z,6264.2
2022-11-25T12:13:17.190Z,4834.2
2022-11-25T12:18:41.885Z,4011.3
2022-11-25T12:24:06.619Z,3192.1
2022-11-25T12:29:31.232Z,3636.3
2022-11-25T12:35:01.974Z,5333.3
2022-11-25T12:40:27.473Z,7311.3
2022-11-25T12:45:52.840Z,6575
2022-11-25T12:51:17.930Z,5042.9
2022-11-25T13:40:21.850Z,2727.1
2022-11-25T13:45:46.577Z,3083.8
2022-11-25T13:51:11.976Z,3529.2
2022-11-25T14:02:04.929Z,2773.3
2022-11-25T14:07:35.688Z,2454.6
2022-11-25T14:13:00.704Z,3146.7
2022-11-25T14:18:44.692Z,2482.5
2022-11-25T14:24:22.177Z,2542.9
2022-11-25T14:29:47.435Z,2354.2
2022-11-25T14:35:29.881Z,2317.1
2022-11-25T14:40:55.152Z,1839.6
2022-11-25T14:46:20.245Z,1472.1
2022-11-25T14:51:45.355Z,1330.4
2022-11-25T14:57:10.503Z,1298.7
2022-11-25T15:02:35.586Z,1056.3
2022-11-25T15:08:00.816Z,929.6
2022-11-25T15:18:50.501Z,677.1
2022-11-25T15:29:43.314Z,366.3
2022-11-25T15:35:08.349Z,222.1
2022-11-25T15:40:33.381Z,132.9
2022-11-25T15:45:58.545Z,63.7
2022-11-25T15:56:52.098Z,0.5
2022-11-25T16:02:17.611Z,0
2022-11-25T16:07:42.906Z,0
2022-11-25T16:13:08.481Z,0
2022-11-25T16:18:40.068Z,0
2022-11-25T16:24:05.803Z,0
2022-11-25T16:29:31.013Z,0
2022-11-25T16:34:56.232Z,0
2022-11-25T16:40:21.661Z,0
2022-11-25T16:45:54.262Z,0
2022-11-25T16:51:20.034Z,0
2022-11-25T16:56:45.460Z,0
2022-11-25T17:02:10.809Z,0
2022-11-25T17:07:43.515Z,0
2022-11-25T17:13:08.939Z,0
2022-11-25T17:18:34.670Z,0
2022-11-25T17:24:00.076Z,0
2022-11-25T17:29:28.226Z,0
2022-11-25T17:34:53.432Z,0
2022-11-25T17:40:18.883Z,0
2022-11-25T17:45:47.566Z,0
2022-11-25T17:51:13.335Z,0
2022-11-25T17:56:38.772Z,0
2022-11-25T18:02:04.211Z,0
2022-11-25T18:07:29.705Z,0
2022-11-25T18:12:55.137Z,0
2022-11-25T18:18:20.240Z,0
2022-11-25T18:23:45.561Z,0
2022-11-25T18:29:10.943Z,0
2022-11-25T18:34:36.652Z,0
2022-11-25T18:40:02.057Z,0
2022-11-25T18:45:27.453Z,0
2022-11-25T18:50:52.838Z,0
2022-11-25T18:56:18.275Z,0
2022-11-25T19:01:48.354Z,0
2022-11-25T19:07:15.153Z,0
2022-11-25T19:18:05.597Z,0
2022-11-25T19:23:30.870Z,0
2022-11-25T19:28:56.211Z,0
2022-11-25T19:34:21.669Z,0
2022-11-25T19:39:54.199Z,0
2022-11-25T19:45:19.683Z,0
2022-11-25T19:50:45.341Z,0
2022-11-25T19:56:10.611Z,0
2022-11-25T20:01:38.274Z,0
2022-11-25T20:07:04.051Z,0
2022-11-25T20:12:32.367Z,0
2022-11-25T20:17:57.881Z,0
2022-11-25T20:23:23.265Z,0
2022-11-25T20:28:48.733Z,0
2022-11-25T20:34:13.941Z,0
2022-11-25T20:39:39.276Z,0
2022-11-25T20:45:04.676Z,0
2022-11-25T20:55:58.286Z,0
2022-11-25T21:01:23.982Z,0
2022-11-25T21:06:49.310Z,0
2022-11-25T21:12:18.764Z,0
2022-11-25T21:17:44.419Z,0
2022-11-25T21:23:10.026Z,0
2022-11-25T21:28:35.240Z,0
2022-11-25T21:34:03.652Z,0
2022-11-25T21:39:29.185Z,0
2022-11-25T21:44:54.729Z,0
2022-11-25T21:50:19.876Z,0
2022-11-25T21:55:50.840Z,0
2022-11-25T22:01:16.193Z,0
2022-11-25T22:06:41.573Z,0
2022-11-25T22:12:06.844Z,0
2022-11-25T22:17:32.219Z,0
2022-11-25T22:22:57.611Z,0
2022-11-25T22:28:23.208Z,0
2022-11-25T22:33:48.529Z,0
2022-11-25T22:39:13.804Z,0
2022-11-25T22:44:41.855Z,0
2022-11-25T22:50:06.950Z,0
2022-11-25T22:55:32.184Z,0
2022-11-25T23:00:57.615Z,0
2022-11-25T23:06:25.877Z,0
2022-11-25T23:11:51.247Z,0
2022-11-25T23:17:16.501Z,0
2022-11-25T23:22:41.792Z,0
2022-11-25T23:28:07.602Z,0
2022-11-25T23:33:33.793Z,0
2022-11-25T23:38:59.455Z,0
2022-11-25T23:49:35.919Z,0
2022-11-25T23:55:16.270Z,0
